sensor_id;sensor_type;location;lat;lon;timestamp;P1;durP1;ratioP1;P2;durP2;ratioP2
5225;SDS011;2632;51.666;7.146;2023-10-09T00:02:09;18.17;;;8.45;;
5225;SDS011;2632;51.666;7.146;2023-10-09T00:04:37;14.37;;;8.50;;
5225;SDS011;2632;51.666;7.146;2023-10-09T00:07:08;17.85;;;9.25;;
5225;SDS011;2632;51.666;7.146;2023-10-09T00:09:35;17.37;;;8.30;;
5225;SDS011;2632;51.666;7.146;2023-10-09T00:12:15;17.10;;;8.73;;
5225;SDS011;2632;51.666;7.146;2023-10-09T00:14:43;17.42;;;9.50;;
5225;SDS011;2632;51.666;7.146;2023-10-09T00:17:15;18.80;;;8.52;;
5225;SDS011;2632;51.666;7.146;2023-10-09T00:19:47;17.52;;;8.40;;
5225;SDS011;2632;51.666;7.146;2023-10-09T00:22:25;17.48;;;9.10;;
5225;SDS011;2632;51.666;7.146;2023-10-09T00:24:53;18.38;;;9.25;;
5225;SDS011;2632;51.666;7.146;2023-10-09T00:27:41;19.65;;;9.60;;
5225;SDS011;2632;51.666;7.146;2023-10-09T00:30:13;22.17;;;9.63;;
5225;SDS011;2632;51.666;7.146;2023-10-09T00:32:45;18.05;;;9.30;;
5225;SDS011;2632;51.666;7.146;2023-10-09T00:35:24;18.45;;;8.90;;
5225;SDS011;2632;51.666;7.146;2023-10-09T00:38:10;17.63;;;8.77;;
5225;SDS011;2632;51.666;7.146;2023-10-09T00:40:46;19.38;;;8.43;;
5225;SDS011;2632;51.666;7.146;2023-10-09T00:43:13;17.10;;;8.98;;
5225;SDS011;2632;51.666;7.146;2023-10-09T00:45:40;18.33;;;8.57;;
5225;SDS011;2632;51.666;7.146;2023-10-09T00:48:11;17.03;;;8.80;;
5225;SDS011;2632;51.666;7.146;2023-10-09T00:50:41;17.25;;;8.60;;
5225;SDS011;2632;51.666;7.146;2023-10-09T00:53:19;17.33;;;8.30;;
5225;SDS011;2632;51.666;7.146;2023-10-09T00:56:01;13.73;;;8.13;;
5225;SDS011;2632;51.666;7.146;2023-10-09T00:58:47;18.00;;;8.32;;
5225;SDS011;2632;51.666;7.146;2023-10-09T01:01:24;15.20;;;7.60;;
5225;SDS011;2632;51.666;7.146;2023-10-09T01:04:01;16.57;;;7.80;;
5225;SDS011;2632;51.666;7.146;2023-10-09T01:06:33;16.90;;;8.50;;
5225;SDS011;2632;51.666;7.146;2023-10-09T01:09:01;13.75;;;8.60;;
5225;SDS011;2632;51.666;7.146;2023-10-09T01:11:38;20.80;;;8.90;;
5225;SDS011;2632;51.666;7.146;2023-10-09T01:14:17;19.03;;;8.90;;
5225;SDS011;2632;51.666;7.146;2023-10-09T01:16:47;16.90;;;8.68;;
5225;SDS011;2632;51.666;7.146;2023-10-09T01:19:14;25.20;;;12.00;;
5225;SDS011;2632;51.666;7.146;2023-10-09T01:21:50;22.48;;;11.18;;
5225;SDS011;2632;51.666;7.146;2023-10-09T01:24:17;18.85;;;10.15;;
5225;SDS011;2632;51.666;7.146;2023-10-09T01:26:49;22.58;;;11.73;;
5225;SDS011;2632;51.666;7.146;2023-10-09T01:31:52;28.80;;;15.20;;
5225;SDS011;2632;51.666;7.146;2023-10-09T01:34:33;22.85;;;12.20;;
5225;SDS011;2632;51.666;7.146;2023-10-09T01:37:06;22.92;;;11.30;;
5225;SDS011;2632;51.666;7.146;2023-10-09T01:39:49;26.37;;;12.50;;
5225;SDS011;2632;51.666;7.146;2023-10-09T01:42:17;26.80;;;14.57;;
5225;SDS011;2632;51.666;7.146;2023-10-09T01:45:00;26.30;;;13.40;;
5225;SDS011;2632;51.666;7.146;2023-10-09T01:47:45;28.37;;;13.87;;
5225;SDS011;2632;51.666;7.146;2023-10-09T01:50:18;45.30;;;19.75;;
5225;SDS011;2632;51.666;7.146;2023-10-09T01:52:46;28.42;;;14.40;;
5225;SDS011;2632;51.666;7.146;2023-10-09T01:55:16;32.70;;;16.05;;
5225;SDS011;2632;51.666;7.146;2023-10-09T01:57:57;31.10;;;14.80;;
5225;SDS011;2632;51.666;7.146;2023-10-09T02:00:32;35.55;;;17.58;;
5225;SDS011;2632;51.666;7.146;2023-10-09T02:03:08;37.28;;;17.58;;
5225;SDS011;2632;51.666;7.146;2023-10-09T02:05:50;32.60;;;17.52;;
5225;SDS011;2632;51.666;7.146;2023-10-09T02:08:17;37.97;;;18.50;;
5225;SDS011;2632;51.666;7.146;2023-10-09T02:10:48;33.78;;;17.42;;
5225;SDS011;2632;51.666;7.146;2023-10-09T02:13:15;31.63;;;16.00;;
5225;SDS011;2632;51.666;7.146;2023-10-09T02:15:43;34.72;;;18.17;;
5225;SDS011;2632;51.666;7.146;2023-10-09T02:18:16;32.40;;;17.73;;
5225;SDS011;2632;51.666;7.146;2023-10-09T02:23:26;37.60;;;16.98;;
5225;SDS011;2632;51.666;7.146;2023-10-09T02:26:05;33.65;;;17.75;;
5225;SDS011;2632;51.666;7.146;2023-10-09T02:28:35;36.60;;;17.83;;
5225;SDS011;2632;51.666;7.146;2023-10-09T02:31:12;31.70;;;17.13;;
5225;SDS011;2632;51.666;7.146;2023-10-09T02:33:39;34.33;;;17.10;;
5225;SDS011;2632;51.666;7.146;2023-10-09T02:36:06;32.13;;;17.00;;
5225;SDS011;2632;51.666;7.146;2023-10-09T02:38:34;31.42;;;17.80;;
5225;SDS011;2632;51.666;7.146;2023-10-09T02:41:06;34.23;;;17.73;;
5225;SDS011;2632;51.666;7.146;2023-10-09T02:43:39;33.00;;;17.20;;
5225;SDS011;2632;51.666;7.146;2023-10-09T02:46:21;28.10;;;16.35;;
5225;SDS011;2632;51.666;7.146;2023-10-09T02:48:57;33.17;;;17.48;;
5225;SDS011;2632;51.666;7.146;2023-10-09T02:51:24;33.90;;;17.83;;
5225;SDS011;2632;51.666;7.146;2023-10-09T02:56:19;30.77;;;16.65;;
5225;SDS011;2632;51.666;7.146;2023-10-09T02:58:54;33.90;;;17.05;;
5225;SDS011;2632;51.666;7.146;2023-10-09T03:01:22;31.00;;;15.90;;
5225;SDS011;2632;51.666;7.146;2023-10-09T03:03:48;33.00;;;16.23;;
5225;SDS011;2632;51.666;7.146;2023-10-09T03:06:15;32.63;;;16.60;;
5225;SDS011;2632;51.666;7.146;2023-10-09T03:08:55;29.02;;;15.95;;
5225;SDS011;2632;51.666;7.146;2023-10-09T03:11:21;25.03;;;14.00;;
5225;SDS011;2632;51.666;7.146;2023-10-09T03:13:49;34.63;;;16.15;;
5225;SDS011;2632;51.666;7.146;2023-10-09T03:16:16;27.65;;;14.77;;
5225;SDS011;2632;51.666;7.146;2023-10-09T03:18:52;28.83;;;14.85;;
5225;SDS011;2632;51.666;7.146;2023-10-09T03:21:19;31.63;;;15.57;;
5225;SDS011;2632;51.666;7.146;2023-10-09T03:23:47;26.45;;;14.40;;
5225;SDS011;2632;51.666;7.146;2023-10-09T03:26:18;26.43;;;14.47;;
5225;SDS011;2632;51.666;7.146;2023-10-09T03:28:48;24.65;;;15.00;;
5225;SDS011;2632;51.666;7.146;2023-10-09T03:31:15;27.70;;;15.10;;
5225;SDS011;2632;51.666;7.146;2023-10-09T03:33:41;30.02;;;14.27;;
5225;SDS011;2632;51.666;7.146;2023-10-09T03:36:08;27.37;;;14.47;;
5225;SDS011;2632;51.666;7.146;2023-10-09T03:38:38;27.38;;;14.23;;
5225;SDS011;2632;51.666;7.146;2023-10-09T03:41:05;25.92;;;15.10;;
5225;SDS011;2632;51.666;7.146;2023-10-09T03:43:33;26.40;;;14.85;;
5225;SDS011;2632;51.666;7.146;2023-10-09T03:46:04;26.87;;;14.87;;
5225;SDS011;2632;51.666;7.146;2023-10-09T03:48:47;29.33;;;14.60;;
5225;SDS011;2632;51.666;7.146;2023-10-09T03:51:14;28.02;;;14.48;;
5225;SDS011;2632;51.666;7.146;2023-10-09T03:53:48;24.65;;;13.98;;
5225;SDS011;2632;51.666;7.146;2023-10-09T03:56:15;26.08;;;13.82;;
5225;SDS011;2632;51.666;7.146;2023-10-09T03:58:44;24.23;;;13.73;;
5225;SDS011;2632;51.666;7.146;2023-10-09T04:01:12;23.37;;;13.23;;
5225;SDS011;2632;51.666;7.146;2023-10-09T04:03:56;27.80;;;13.88;;
5225;SDS011;2632;51.666;7.146;2023-10-09T04:06:27;25.53;;;13.90;;
5225;SDS011;2632;51.666;7.146;2023-10-09T04:08:57;26.85;;;13.88;;
5225;SDS011;2632;51.666;7.146;2023-10-09T04:11:25;22.85;;;13.23;;
5225;SDS011;2632;51.666;7.146;2023-10-09T04:13:52;25.92;;;13.15;;
5225;SDS011;2632;51.666;7.146;2023-10-09T04:16:19;25.50;;;13.57;;
5225;SDS011;2632;51.666;7.146;2023-10-09T04:19:06;25.73;;;13.20;;
5225;SDS011;2632;51.666;7.146;2023-10-09T04:21:37;24.30;;;13.38;;
5225;SDS011;2632;51.666;7.146;2023-10-09T04:24:05;24.30;;;13.33;;
5225;SDS011;2632;51.666;7.146;2023-10-09T04:26:43;24.52;;;13.13;;
5225;SDS011;2632;51.666;7.146;2023-10-09T04:29:11;27.25;;;13.43;;
5225;SDS011;2632;51.666;7.146;2023-10-09T04:31:49;20.95;;;12.20;;
5225;SDS011;2632;51.666;7.146;2023-10-09T04:34:18;22.48;;;11.88;;
5225;SDS011;2632;51.666;7.146;2023-10-09T04:36:49;25.25;;;12.88;;
5225;SDS011;2632;51.666;7.146;2023-10-09T04:39:17;24.20;;;12.00;;
5225;SDS011;2632;51.666;7.146;2023-10-09T04:42:04;22.58;;;12.60;;
5225;SDS011;2632;51.666;7.146;2023-10-09T04:45:02;26.00;;;13.75;;
5225;SDS011;2632;51.666;7.146;2023-10-09T04:47:34;23.80;;;12.67;;
5225;SDS011;2632;51.666;7.146;2023-10-09T04:50:08;22.90;;;12.00;;
5225;SDS011;2632;51.666;7.146;2023-10-09T04:52:38;21.48;;;13.20;;
5225;SDS011;2632;51.666;7.146;2023-10-09T04:55:05;27.33;;;12.80;;
5225;SDS011;2632;51.666;7.146;2023-10-09T04:57:42;20.65;;;11.73;;
5225;SDS011;2632;51.666;7.146;2023-10-09T05:00:14;21.67;;;11.43;;
5225;SDS011;2632;51.666;7.146;2023-10-09T05:02:55;26.40;;;13.03;;
5225;SDS011;2632;51.666;7.146;2023-10-09T05:05:39;22.63;;;12.32;;
5225;SDS011;2632;51.666;7.146;2023-10-09T05:08:11;22.77;;;12.85;;
5225;SDS011;2632;51.666;7.146;2023-10-09T05:13:31;24.75;;;13.50;;
5225;SDS011;2632;51.666;7.146;2023-10-09T05:18:33;23.50;;;14.10;;
5225;SDS011;2632;51.666;7.146;2023-10-09T05:21:03;29.93;;;14.30;;
5225;SDS011;2632;51.666;7.146;2023-10-09T05:23:39;27.30;;;14.20;;
5225;SDS011;2632;51.666;7.146;2023-10-09T05:26:35;29.17;;;15.17;;
5225;SDS011;2632;51.666;7.146;2023-10-09T05:29:12;28.15;;;14.32;;
5225;SDS011;2632;51.666;7.146;2023-10-09T05:31:58;27.60;;;14.48;;
5225;SDS011;2632;51.666;7.146;2023-10-09T05:34:41;23.23;;;13.63;;
5225;SDS011;2632;51.666;7.146;2023-10-09T05:37:25;23.67;;;13.75;;
5225;SDS011;2632;51.666;7.146;2023-10-09T05:40:05;22.90;;;12.95;;
5225;SDS011;2632;51.666;7.146;2023-10-09T05:42:33;22.93;;;12.70;;
5225;SDS011;2632;51.666;7.146;2023-10-09T05:47:45;22.95;;;11.98;;
5225;SDS011;2632;51.666;7.146;2023-10-09T05:50:36;24.60;;;12.38;;
5225;SDS011;2632;51.666;7.146;2023-10-09T05:53:04;21.33;;;12.00;;
5225;SDS011;2632;51.666;7.146;2023-10-09T05:55:35;22.75;;;12.10;;
5225;SDS011;2632;51.666;7.146;2023-10-09T05:58:21;20.87;;;12.10;;
5225;SDS011;2632;51.666;7.146;2023-10-09T06:01:06;23.20;;;12.40;;
5225;SDS011;2632;51.666;7.146;2023-10-09T06:03:52;21.13;;;12.20;;
5225;SDS011;2632;51.666;7.146;2023-10-09T06:06:30;20.77;;;11.85;;
5225;SDS011;2632;51.666;7.146;2023-10-09T06:09:01;18.80;;;11.30;;
5225;SDS011;2632;51.666;7.146;2023-10-09T06:11:57;20.08;;;11.40;;
5225;SDS011;2632;51.666;7.146;2023-10-09T06:14:44;17.77;;;11.38;;
5225;SDS011;2632;51.666;7.146;2023-10-09T06:17:23;18.60;;;11.25;;
5225;SDS011;2632;51.666;7.146;2023-10-09T06:19:50;21.88;;;12.20;;
5225;SDS011;2632;51.666;7.146;2023-10-09T06:22:25;23.20;;;12.50;;
5225;SDS011;2632;51.666;7.146;2023-10-09T06:25:10;19.00;;;11.27;;
5225;SDS011;2632;51.666;7.146;2023-10-09T06:27:38;22.50;;;11.95;;
5225;SDS011;2632;51.666;7.146;2023-10-09T06:30:08;21.13;;;12.05;;
5225;SDS011;2632;51.666;7.146;2023-10-09T06:32:39;19.40;;;10.32;;
5225;SDS011;2632;51.666;7.146;2023-10-09T06:35:24;21.02;;;12.00;;
5225;SDS011;2632;51.666;7.146;2023-10-09T06:37:57;20.00;;;11.30;;
5225;SDS011;2632;51.666;7.146;2023-10-09T06:40:28;21.58;;;11.77;;
5225;SDS011;2632;51.666;7.146;2023-10-09T06:43:14;21.98;;;11.30;;
5225;SDS011;2632;51.666;7.146;2023-10-09T06:45:53;22.85;;;12.80;;
5225;SDS011;2632;51.666;7.146;2023-10-09T06:48:21;17.20;;;10.20;;
5225;SDS011;2632;51.666;7.146;2023-10-09T06:53:50;19.98;;;11.55;;
5225;SDS011;2632;51.666;7.146;2023-10-09T06:56:21;26.80;;;13.45;;
5225;SDS011;2632;51.666;7.146;2023-10-09T06:59:01;20.92;;;11.18;;
5225;SDS011;2632;51.666;7.146;2023-10-09T07:01:31;18.48;;;11.40;;
5225;SDS011;2632;51.666;7.146;2023-10-09T07:04:11;15.02;;;10.10;;
5225;SDS011;2632;51.666;7.146;2023-10-09T07:06:56;18.50;;;10.77;;
5225;SDS011;2632;51.666;7.146;2023-10-09T07:09:25;19.35;;;11.40;;
5225;SDS011;2632;51.666;7.146;2023-10-09T07:12:09;20.17;;;11.57;;
5225;SDS011;2632;51.666;7.146;2023-10-09T07:14:39;20.60;;;10.88;;
5225;SDS011;2632;51.666;7.146;2023-10-09T07:17:07;22.70;;;11.98;;
5225;SDS011;2632;51.666;7.146;2023-10-09T07:20:11;18.83;;;10.18;;
5225;SDS011;2632;51.666;7.146;2023-10-09T07:22:41;21.02;;;12.00;;
5225;SDS011;2632;51.666;7.146;2023-10-09T07:25:22;21.75;;;11.98;;
5225;SDS011;2632;51.666;7.146;2023-10-09T07:28:21;21.17;;;11.38;;
5225;SDS011;2632;51.666;7.146;2023-10-09T07:31:03;17.87;;;11.70;;
5225;SDS011;2632;51.666;7.146;2023-10-09T07:33:35;20.40;;;11.47;;
5225;SDS011;2632;51.666;7.146;2023-10-09T07:36:22;18.58;;;11.32;;
5225;SDS011;2632;51.666;7.146;2023-10-09T07:39:01;22.35;;;12.50;;
5225;SDS011;2632;51.666;7.146;2023-10-09T07:41:32;20.98;;;11.20;;
5225;SDS011;2632;51.666;7.146;2023-10-09T07:43:59;21.77;;;11.80;;
5225;SDS011;2632;51.666;7.146;2023-10-09T07:46:45;20.88;;;12.82;;
5225;SDS011;2632;51.666;7.146;2023-10-09T07:49:39;20.55;;;12.75;;
5225;SDS011;2632;51.666;7.146;2023-10-09T07:52:06;22.40;;;12.83;;
5225;SDS011;2632;51.666;7.146;2023-10-09T07:54:33;23.73;;;12.75;;
5225;SDS011;2632;51.666;7.146;2023-10-09T07:57:00;21.10;;;12.65;;
5225;SDS011;2632;51.666;7.146;2023-10-09T07:59:35;21.48;;;12.30;;
5225;SDS011;2632;51.666;7.146;2023-10-09T08:02:07;23.52;;;13.65;;
5225;SDS011;2632;51.666;7.146;2023-10-09T08:04:39;22.50;;;12.80;;
5225;SDS011;2632;51.666;7.146;2023-10-09T08:07:16;20.70;;;12.00;;
5225;SDS011;2632;51.666;7.146;2023-10-09T08:10:06;22.08;;;12.93;;
5225;SDS011;2632;51.666;7.146;2023-10-09T08:12:40;22.17;;;13.27;;
5225;SDS011;2632;51.666;7.146;2023-10-09T08:15:16;17.88;;;12.30;;
5225;SDS011;2632;51.666;7.146;2023-10-09T08:17:51;20.70;;;13.10;;
5225;SDS011;2632;51.666;7.146;2023-10-09T08:20:26;19.30;;;12.75;;
5225;SDS011;2632;51.666;7.146;2023-10-09T08:22:53;23.30;;;13.20;;
5225;SDS011;2632;51.666;7.146;2023-10-09T08:25:24;26.90;;;14.02;;
5225;SDS011;2632;51.666;7.146;2023-10-09T08:28:02;22.48;;;13.25;;
5225;SDS011;2632;51.666;7.146;2023-10-09T08:30:48;23.73;;;14.32;;
5225;SDS011;2632;51.666;7.146;2023-10-09T08:33:16;26.83;;;14.05;;
5225;SDS011;2632;51.666;7.146;2023-10-09T08:35:55;26.17;;;13.57;;
5225;SDS011;2632;51.666;7.146;2023-10-09T08:38:44;22.75;;;13.05;;
5225;SDS011;2632;51.666;7.146;2023-10-09T08:41:11;25.30;;;13.05;;
5225;SDS011;2632;51.666;7.146;2023-10-09T08:43:56;25.40;;;14.43;;
5225;SDS011;2632;51.666;7.146;2023-10-09T08:46:24;21.00;;;13.63;;
5225;SDS011;2632;51.666;7.146;2023-10-09T08:48:55;24.02;;;13.23;;
5225;SDS011;2632;51.666;7.146;2023-10-09T08:51:26;27.88;;;14.65;;
5225;SDS011;2632;51.666;7.146;2023-10-09T08:53:55;24.25;;;14.85;;
5225;SDS011;2632;51.666;7.146;2023-10-09T08:56:22;23.48;;;13.93;;
5225;SDS011;2632;51.666;7.146;2023-10-09T09:01:17;22.55;;;14.38;;
5225;SDS011;2632;51.666;7.146;2023-10-09T09:03:48;25.77;;;14.45;;
5225;SDS011;2632;51.666;7.146;2023-10-09T09:06:17;25.02;;;13.93;;
5225;SDS011;2632;51.666;7.146;2023-10-09T09:08:45;25.00;;;14.48;;
5225;SDS011;2632;51.666;7.146;2023-10-09T09:11:14;23.00;;;13.48;;
5225;SDS011;2632;51.666;7.146;2023-10-09T09:14:04;25.60;;;12.67;;
5225;SDS011;2632;51.666;7.146;2023-10-09T09:16:33;26.33;;;13.77;;
5225;SDS011;2632;51.666;7.146;2023-10-09T09:19:03;23.63;;;13.50;;
5225;SDS011;2632;51.666;7.146;2023-10-09T09:21:38;25.30;;;14.83;;
5225;SDS011;2632;51.666;7.146;2023-10-09T09:24:11;26.87;;;14.00;;
5225;SDS011;2632;51.666;7.146;2023-10-09T09:26:42;26.13;;;12.30;;
5225;SDS011;2632;51.666;7.146;2023-10-09T09:29:13;20.50;;;11.63;;
5225;SDS011;2632;51.666;7.146;2023-10-09T09:31:51;22.57;;;12.60;;
5225;SDS011;2632;51.666;7.146;2023-10-09T09:34:24;28.03;;;12.17;;
5225;SDS011;2632;51.666;7.146;2023-10-09T09:36:57;27.03;;;13.33;;
5225;SDS011;2632;51.666;7.146;2023-10-09T09:39:25;26.50;;;13.00;;
5225;SDS011;2632;51.666;7.146;2023-10-09T09:42:07;20.20;;;11.30;;
5225;SDS011;2632;51.666;7.146;2023-10-09T09:44:36;22.60;;;12.37;;
5225;SDS011;2632;51.666;7.146;2023-10-09T09:47:13;25.60;;;12.57;;
5225;SDS011;2632;51.666;7.146;2023-10-09T09:49:51;22.90;;;10.17;;
5225;SDS011;2632;51.666;7.146;2023-10-09T09:52:30;21.70;;;11.00;;
5225;SDS011;2632;51.666;7.146;2023-10-09T09:55:10;27.57;;;12.83;;
5225;SDS011;2632;51.666;7.146;2023-10-09T09:57:49;24.70;;;13.03;;
5225;SDS011;2632;51.666;7.146;2023-10-09T10:00:19;21.37;;;12.77;;
5225;SDS011;2632;51.666;7.146;2023-10-09T10:02:57;19.33;;;12.30;;
5225;SDS011;2632;51.666;7.146;2023-10-09T10:05:31;23.33;;;11.97;;
5225;SDS011;2632;51.666;7.146;2023-10-09T10:07:59;26.20;;;12.73;;
5225;SDS011;2632;51.666;7.146;2023-10-09T10:10:39;28.57;;;12.67;;
5225;SDS011;2632;51.666;7.146;2023-10-09T10:21:26;23.10;;;12.70;;
5225;SDS011;2632;51.666;7.146;2023-10-09T10:24:40;26.73;;;12.33;;
5225;SDS011;2632;51.666;7.146;2023-10-09T10:27:14;19.40;;;11.53;;
5225;SDS011;2632;51.666;7.146;2023-10-09T10:32:53;20.53;;;12.23;;
5225;SDS011;2632;51.666;7.146;2023-10-09T10:35:20;25.23;;;13.07;;
5225;SDS011;2632;51.666;7.146;2023-10-09T10:37:58;20.33;;;10.80;;
5225;SDS011;2632;51.666;7.146;2023-10-09T10:40:41;24.70;;;11.87;;
5225;SDS011;2632;51.666;7.146;2023-10-09T10:43:15;19.80;;;11.17;;
5225;SDS011;2632;51.666;7.146;2023-10-09T10:46:04;30.23;;;12.60;;
5225;SDS011;2632;51.666;7.146;2023-10-09T10:48:41;22.20;;;11.83;;
5225;SDS011;2632;51.666;7.146;2023-10-09T10:51:13;20.30;;;10.83;;
5225;SDS011;2632;51.666;7.146;2023-10-09T10:53:51;22.73;;;11.90;;
5225;SDS011;2632;51.666;7.146;2023-10-09T10:56:24;21.33;;;11.70;;
5225;SDS011;2632;51.666;7.146;2023-10-09T10:59:01;25.83;;;12.20;;
5225;SDS011;2632;51.666;7.146;2023-10-09T11:01:31;26.47;;;13.93;;
5225;SDS011;2632;51.666;7.146;2023-10-09T11:04:20;24.90;;;13.83;;
5225;SDS011;2632;51.666;7.146;2023-10-09T11:07:01;23.00;;;13.40;;
5225;SDS011;2632;51.666;7.146;2023-10-09T11:09:52;26.23;;;13.17;;
5225;SDS011;2632;51.666;7.146;2023-10-09T11:12:28;27.87;;;13.83;;
5225;SDS011;2632;51.666;7.146;2023-10-09T11:15:06;26.60;;;12.60;;
5225;SDS011;2632;51.666;7.146;2023-10-09T11:17:35;26.03;;;13.37;;
5225;SDS011;2632;51.666;7.146;2023-10-09T11:20:04;26.57;;;12.17;;
5225;SDS011;2632;51.666;7.146;2023-10-09T11:22:50;20.20;;;12.23;;
5225;SDS011;2632;51.666;7.146;2023-10-09T11:25:40;27.27;;;12.37;;
5225;SDS011;2632;51.666;7.146;2023-10-09T11:28:21;23.17;;;13.47;;
5225;SDS011;2632;51.666;7.146;2023-10-09T11:31:09;21.57;;;10.90;;
5225;SDS011;2632;51.666;7.146;2023-10-09T11:33:44;19.63;;;10.80;;
5225;SDS011;2632;51.666;7.146;2023-10-09T11:36:11;23.80;;;11.50;;
5225;SDS011;2632;51.666;7.146;2023-10-09T11:38:38;23.60;;;11.97;;
5225;SDS011;2632;51.666;7.146;2023-10-09T11:41:11;20.42;;;11.52;;
5225;SDS011;2632;51.666;7.146;2023-10-09T11:43:51;18.80;;;11.98;;
5225;SDS011;2632;51.666;7.146;2023-10-09T11:46:20;19.83;;;12.30;;
5225;SDS011;2632;51.666;7.146;2023-10-09T11:49:07;20.65;;;12.30;;
5225;SDS011;2632;51.666;7.146;2023-10-09T11:52:04;22.70;;;12.57;;
5225;SDS011;2632;51.666;7.146;2023-10-09T11:54:35;21.23;;;12.48;;
5225;SDS011;2632;51.666;7.146;2023-10-09T11:57:03;23.63;;;12.27;;
5225;SDS011;2632;51.666;7.146;2023-10-09T11:59:30;24.00;;;12.57;;
5225;SDS011;2632;51.666;7.146;2023-10-09T12:02:04;17.00;;;11.95;;
5225;SDS011;2632;51.666;7.146;2023-10-09T12:04:31;23.58;;;12.70;;
5225;SDS011;2632;51.666;7.146;2023-10-09T12:06:58;22.93;;;11.93;;
5225;SDS011;2632;51.666;7.146;2023-10-09T12:09:32;22.85;;;12.65;;
5225;SDS011;2632;51.666;7.146;2023-10-09T12:12:02;21.13;;;13.33;;
5225;SDS011;2632;51.666;7.146;2023-10-09T12:14:30;21.75;;;12.05;;
5225;SDS011;2632;51.666;7.146;2023-10-09T12:17:04;22.50;;;12.30;;
5225;SDS011;2632;51.666;7.146;2023-10-09T12:19:35;21.15;;;13.20;;
5225;SDS011;2632;51.666;7.146;2023-10-09T12:22:05;23.02;;;12.82;;
5225;SDS011;2632;51.666;7.146;2023-10-09T12:24:33;22.63;;;12.63;;
5225;SDS011;2632;51.666;7.146;2023-10-09T12:27:00;19.35;;;12.60;;
5225;SDS011;2632;51.666;7.146;2023-10-09T12:29:27;26.30;;;15.00;;
5225;SDS011;2632;51.666;7.146;2023-10-09T12:31:56;24.70;;;14.20;;
5225;SDS011;2632;51.666;7.146;2023-10-09T12:34:26;21.65;;;13.50;;
5225;SDS011;2632;51.666;7.146;2023-10-09T12:36:56;29.95;;;14.32;;
5225;SDS011;2632;51.666;7.146;2023-10-09T12:39:27;24.27;;;13.50;;
5225;SDS011;2632;51.666;7.146;2023-10-09T12:42:00;23.20;;;12.70;;
5225;SDS011;2632;51.666;7.146;2023-10-09T12:44:38;21.42;;;12.80;;
5225;SDS011;2632;51.666;7.146;2023-10-09T12:47:08;24.60;;;13.07;;
5225;SDS011;2632;51.666;7.146;2023-10-09T12:49:38;21.52;;;13.50;;
5225;SDS011;2632;51.666;7.146;2023-10-09T12:52:08;25.88;;;13.25;;
5225;SDS011;2632;51.666;7.146;2023-10-09T12:54:45;21.63;;;13.00;;
5225;SDS011;2632;51.666;7.146;2023-10-09T12:57:12;21.65;;;12.13;;
5225;SDS011;2632;51.666;7.146;2023-10-09T12:59:42;19.92;;;12.50;;
5225;SDS011;2632;51.666;7.146;2023-10-09T13:02:14;21.47;;;13.07;;
5225;SDS011;2632;51.666;7.146;2023-10-09T13:04:55;22.80;;;12.25;;
5225;SDS011;2632;51.666;7.146;2023-10-09T13:07:23;25.42;;;13.82;;
5225;SDS011;2632;51.666;7.146;2023-10-09T13:09:49;21.70;;;12.70;;
5225;SDS011;2632;51.666;7.146;2023-10-09T13:12:35;24.65;;;14.38;;
5225;SDS011;2632;51.666;7.146;2023-10-09T13:15:08;30.50;;;15.07;;
5225;SDS011;2632;51.666;7.146;2023-10-09T13:17:36;23.45;;;14.20;;
5225;SDS011;2632;51.666;7.146;2023-10-09T13:20:04;25.05;;;14.00;;
5225;SDS011;2632;51.666;7.146;2023-10-09T13:22:39;29.10;;;15.18;;
5225;SDS011;2632;51.666;7.146;2023-10-09T13:25:07;24.67;;;14.27;;
5225;SDS011;2632;51.666;7.146;2023-10-09T13:27:59;20.35;;;12.27;;
5225;SDS011;2632;51.666;7.146;2023-10-09T13:30:29;24.53;;;13.80;;
5225;SDS011;2632;51.666;7.146;2023-10-09T13:32:55;26.50;;;12.55;;
5225;SDS011;2632;51.666;7.146;2023-10-09T13:35:22;20.08;;;12.43;;
5225;SDS011;2632;51.666;7.146;2023-10-09T13:38:04;21.10;;;14.02;;
5225;SDS011;2632;51.666;7.146;2023-10-09T13:40:36;26.23;;;12.90;;
5225;SDS011;2632;51.666;7.146;2023-10-09T13:43:03;27.65;;;15.00;;
5225;SDS011;2632;51.666;7.146;2023-10-09T13:45:32;27.10;;;13.73;;
5225;SDS011;2632;51.666;7.146;2023-10-09T13:48:05;27.45;;;14.98;;
5225;SDS011;2632;51.666;7.146;2023-10-09T13:50:31;26.95;;;14.60;;
5225;SDS011;2632;51.666;7.146;2023-10-09T13:52:59;30.73;;;15.33;;
5225;SDS011;2632;51.666;7.146;2023-10-09T13:55:26;27.38;;;14.73;;
5225;SDS011;2632;51.666;7.146;2023-10-09T13:58:09;28.65;;;15.45;;
5225;SDS011;2632;51.666;7.146;2023-10-09T14:00:44;26.08;;;13.57;;
5225;SDS011;2632;51.666;7.146;2023-10-09T14:03:12;25.48;;;12.75;;
5225;SDS011;2632;51.666;7.146;2023-10-09T14:05:40;24.52;;;13.10;;
5225;SDS011;2632;51.666;7.146;2023-10-09T14:08:23;23.30;;;15.32;;
5225;SDS011;2632;51.666;7.146;2023-10-09T14:10:52;24.30;;;13.52;;
5225;SDS011;2632;51.666;7.146;2023-10-09T14:13:18;27.65;;;14.45;;
5225;SDS011;2632;51.666;7.146;2023-10-09T14:15:52;23.98;;;13.75;;
5225;SDS011;2632;51.666;7.146;2023-10-09T14:18:24;23.02;;;11.70;;
5225;SDS011;2632;51.666;7.146;2023-10-09T14:20:51;20.83;;;12.35;;
5225;SDS011;2632;51.666;7.146;2023-10-09T14:23:22;22.58;;;13.65;;
5225;SDS011;2632;51.666;7.146;2023-10-09T14:25:50;25.95;;;14.52;;
5225;SDS011;2632;51.666;7.146;2023-10-09T14:28:20;22.92;;;13.98;;
5225;SDS011;2632;51.666;7.146;2023-10-09T14:30:46;27.02;;;14.40;;
5225;SDS011;2632;51.666;7.146;2023-10-09T14:33:21;25.80;;;13.20;;
5225;SDS011;2632;51.666;7.146;2023-10-09T14:35:51;25.17;;;15.05;;
5225;SDS011;2632;51.666;7.146;2023-10-09T14:38:19;26.00;;;14.80;;
5225;SDS011;2632;51.666;7.146;2023-10-09T14:40:52;22.23;;;13.55;;
5225;SDS011;2632;51.666;7.146;2023-10-09T14:43:26;26.10;;;13.90;;
5225;SDS011;2632;51.666;7.146;2023-10-09T14:46:00;24.38;;;15.40;;
5225;SDS011;2632;51.666;7.146;2023-10-09T14:48:27;23.88;;;13.10;;
5225;SDS011;2632;51.666;7.146;2023-10-09T14:50:54;20.35;;;12.30;;
5225;SDS011;2632;51.666;7.146;2023-10-09T14:53:30;24.85;;;13.35;;
5225;SDS011;2632;51.666;7.146;2023-10-09T14:55:57;22.17;;;12.40;;
5225;SDS011;2632;51.666;7.146;2023-10-09T14:58:25;27.58;;;14.65;;
5225;SDS011;2632;51.666;7.146;2023-10-09T15:00:55;23.75;;;12.18;;
5225;SDS011;2632;51.666;7.146;2023-10-09T15:03:22;24.20;;;13.35;;
5225;SDS011;2632;51.666;7.146;2023-10-09T15:05:49;22.95;;;13.40;;
5225;SDS011;2632;51.666;7.146;2023-10-09T15:08:15;24.20;;;12.60;;
5225;SDS011;2632;51.666;7.146;2023-10-09T15:10:47;22.17;;;11.63;;
5225;SDS011;2632;51.666;7.146;2023-10-09T15:13:15;25.58;;;14.10;;
5225;SDS011;2632;51.666;7.146;2023-10-09T15:15:45;24.60;;;12.90;;
5225;SDS011;2632;51.666;7.146;2023-10-09T15:18:17;23.40;;;13.47;;
5225;SDS011;2632;51.666;7.146;2023-10-09T15:20:44;20.35;;;12.20;;
5225;SDS011;2632;51.666;7.146;2023-10-09T15:23:12;28.60;;;15.10;;
5225;SDS011;2632;51.666;7.146;2023-10-09T15:25:39;28.40;;;14.93;;
5225;SDS011;2632;51.666;7.146;2023-10-09T15:28:08;27.98;;;13.63;;
5225;SDS011;2632;51.666;7.146;2023-10-09T15:30:35;24.33;;;12.57;;
5225;SDS011;2632;51.666;7.146;2023-10-09T15:33:07;23.30;;;13.73;;
5225;SDS011;2632;51.666;7.146;2023-10-09T15:35:35;24.40;;;14.40;;
5225;SDS011;2632;51.666;7.146;2023-10-09T15:38:02;23.77;;;13.38;;
5225;SDS011;2632;51.666;7.146;2023-10-09T15:40:30;21.58;;;11.70;;
5225;SDS011;2632;51.666;7.146;2023-10-09T15:43:00;30.63;;;15.85;;
5225;SDS011;2632;51.666;7.146;2023-10-09T15:45:27;24.07;;;14.00;;
5225;SDS011;2632;51.666;7.146;2023-10-09T15:47:58;25.92;;;13.30;;
5225;SDS011;2632;51.666;7.146;2023-10-09T15:50:25;27.65;;;15.93;;
5225;SDS011;2632;51.666;7.146;2023-10-09T15:52:52;27.83;;;15.52;;
5225;SDS011;2632;51.666;7.146;2023-10-09T15:55:21;24.83;;;14.07;;
5225;SDS011;2632;51.666;7.146;2023-10-09T15:57:53;26.20;;;15.65;;
5225;SDS011;2632;51.666;7.146;2023-10-09T16:00:25;24.83;;;14.40;;